Have a Safe July 4th! 

Flight Track Log - Related Links

Times and Time Zones

All times are in EDT time to prevent confusion due to time zone crossing. See the ENY3003 flight status page for this flight to view local times or setup timezone preferences in your user account.

Time Position Orientation Groundspeed Altitude Reporting Facility
EDT Latitude Longitude Course Direction KTS MPH feet Rate Location/Type
Mon 07:57:59 PM 43.2114 -89.2208 64° Northeast 258 297 5,000  Level Chicago Center
Mon 07:58:00 PM 42.9640 -89.2589 164° South  Level FlightAware Approximate
Mon 07:59:00 PM 42.9070 -89.2361 164° South  Level FlightAware Approximate
Mon 07:59:02 PM 43.1864 -89.1394 113° Southeast 257 296 8,300  Level Chicago Center
Mon 08:00:00 PM 42.8502 -89.2167 160° South  Level FlightAware Approximate
Mon 08:00:04 PM 43.1092 -89.1392 180° South 279 321 10,000  Level Chicago Center
Mon 08:01:00 PM 42.7930 -89.2000 180° South  Level FlightAware Approximate
Mon 08:01:06 PM 43.0136 -89.1592 189° South 339 390 10,600  Level Chicago Center
Mon 08:02:00 PM 42.7266 -89.1735 163° South  Level FlightAware Approximate
Mon 08:02:08 PM 42.8889 -89.1842 188° South 371 427 11,000  Level Chicago Center
Mon 08:03:10 PM 42.7842 -89.1997 186° South 378 435 11,000 -339 Level Chicago Center
Mon 08:04:12 PM 42.6850 -89.1572 163° South 375 432 10,300 -484 Descending Chicago Center
Mon 08:05:14 PM 42.5897 -89.1181 163° South 366 421 10,000 -145 Descending Chicago Center
Mon 08:06:16 PM 42.5289 -89.0131 128° Southeast 376 433 10,000  Level Chicago Center
Mon 08:07:18 PM 42.4661 -88.8711 121° Southeast 374 430 10,000  Level Chicago Center
Mon 08:08:20 PM 42.4128 -88.7561 122° Southeast 365 420 10,000  Level Chicago Center
Mon 08:09:22 PM 42.3644 -88.6372 119° Southeast 365 420 10,000  Level Chicago Center
Mon 08:10:24 PM 42.3172 -88.5011 115° Southeast 366 421 10,000 48 Level Chicago Center
Mon 08:11:26 PM 42.2758 -88.3767 114° Southeast 368 423 10,100 48 Climbing Chicago Center
Mon 08:12:28 PM 42.2300 -88.2422 115° Southeast 368 423 10,100  Level Chicago Center
Mon 08:13:31 PM 42.1519 -88.1483 138° Southeast 374 430 10,100 -336 Level Chicago Center
Mon 08:14:33 PM 42.0828 -88.0575 136° Southeast 312 359 9,400 -823 Descending Chicago Center
Mon 08:15:35 PM 42.0225 -87.9794 136° Southeast 302 348 8,400 -1,016 Descending Chicago Center
Mon 08:16:37 PM 41.9583 -87.8975 136° Southeast 299 344 7,300 -677 Descending Chicago Center
Mon 08:17:39 PM 41.9022 -87.8250 136° Southeast 284 327 7,000 -145 Descending Chicago Center
Mon 08:18:41 PM 41.8564 -87.7378 125° Southeast 292 336 7,000 -97 Level Chicago Center
Mon 08:19:43 PM 41.8558 -87.6303 90° East 276 318 6,800 -581 Descending Chicago Center
Mon 08:20:45 PM 41.8694 -87.5297 80° East 278 320 5,800 -871 Descending Chicago Center
Mon 08:21:47 PM 41.8822 -87.4436 79° East 221 254 5,000 -387 Descending Chicago Center
Mon 08:22:49 PM 41.9253 -87.4111 29° Northeast 208 239 5,000  Level Chicago Center
Mon 08:23:51 PM 41.9647 -87.4483 325° Northwest 188 216 5,000  Level Chicago Center
Mon 08:24:53 PM 41.9661 -87.5189 272° West 189 217 5,000 -97 Level Chicago Center
Mon 08:25:55 PM 41.9658 -87.5944 270° West 189 217 4,800 -532 Descending Chicago Center
Mon 08:26:57 PM 41.9661 -87.6636 270° West 188 216 3,900 -919 Descending Chicago Center
Mon 08:27:59 PM 41.9661 -87.7336 270° West 188 216 2,900 -919 Descending Chicago Center
Mon 08:29:01 PM 41.9658 -87.8025 270° West 175 201 2,000 -823 Descending Chicago Center
Mon 08:30:03 PM 41.9658 -87.8608 270° West 162 186 1,200 -581 Descending Chicago Center
Mon 08:31:05 PM 41.9661 -87.9186 270° West 162 186 800 -387 Descending Chicago Center

Login

Don't have an account? Register now (free) for customized features, flight alerts, and more!